sensor_id;sensor_type;location;lat;lon;timestamp;temperature;humidity
3005;DHT22;1512;51.486;6.610;2023-12-07T00:00:05;0.80;89.20
3005;DHT22;1512;51.486;6.610;2023-12-07T00:04:13;0.80;10.50
3005;DHT22;1512;51.486;6.610;2023-12-07T00:08:22;0.70;1.00
3005;DHT22;1512;51.486;6.610;2023-12-07T00:12:31;0.80;15.30
3005;DHT22;1512;51.486;6.610;2023-12-07T00:16:40;0.70;1.00
3005;DHT22;1512;51.486;6.610;2023-12-07T00:20:48;0.70;1.00
3005;DHT22;1512;51.486;6.610;2023-12-07T00:24:57;0.70;1.00
3005;DHT22;1512;51.486;6.610;2023-12-07T00:29:06;0.60;1.00
3005;DHT22;1512;51.486;6.610;2023-12-07T00:33:14;0.50;1.00
3005;DHT22;1512;51.486;6.610;2023-12-07T00:37:24;0.50;1.00
3005;DHT22;1512;51.486;6.610;2023-12-07T00:41:33;0.50;1.00
3005;DHT22;1512;51.486;6.610;2023-12-07T00:45:42;0.50;1.00
3005;DHT22;1512;51.486;6.610;2023-12-07T00:49:50;0.50;1.00
3005;DHT22;1512;51.486;6.610;2023-12-07T00:54:18;0.50;23.50
3005;DHT22;1512;51.486;6.610;2023-12-07T00:58:27;0.50;1.00
3005;DHT22;1512;51.486;6.610;2023-12-07T01:02:35;0.50;1.00
3005;DHT22;1512;51.486;6.610;2023-12-07T01:06:44;0.50;1.00
3005;DHT22;1512;51.486;6.610;2023-12-07T01:10:53;0.50;1.00
3005;DHT22;1512;51.486;6.610;2023-12-07T01:15:01;0.50;1.00
3005;DHT22;1512;51.486;6.610;2023-12-07T01:19:10;0.40;1.00
3005;DHT22;1512;51.486;6.610;2023-12-07T01:23:21;0.40;1.00
3005;DHT22;1512;51.486;6.610;2023-12-07T01:27:29;0.40;1.00
3005;DHT22;1512;51.486;6.610;2023-12-07T01:31:38;0.40;1.00
3005;DHT22;1512;51.486;6.610;2023-12-07T01:36:06;0.30;1.00
3005;DHT22;1512;51.486;6.610;2023-12-07T01:40:15;0.30;1.00
3005;DHT22;1512;51.486;6.610;2023-12-07T01:44:24;0.30;1.00
3005;DHT22;1512;51.486;6.610;2023-12-07T01:48:34;0.30;1.00
3005;DHT22;1512;51.486;6.610;2023-12-07T01:52:45;0.20;1.00
3005;DHT22;1512;51.486;6.610;2023-12-07T01:56:54;0.20;1.00
3005;DHT22;1512;51.486;6.610;2023-12-07T02:01:04;0.20;1.00
3005;DHT22;1512;51.486;6.610;2023-12-07T02:05:14;0.30;1.00
3005;DHT22;1512;51.486;6.610;2023-12-07T02:09:23;0.30;1.00
3005;DHT22;1512;51.486;6.610;2023-12-07T02:13:32;0.30;1.00
3005;DHT22;1512;51.486;6.610;2023-12-07T02:22:15;0.30;1.00
3005;DHT22;1512;51.486;6.610;2023-12-07T02:26:30;0.30;1.00
3005;DHT22;1512;51.486;6.610;2023-12-07T02:34:58;0.40;1.00
3005;DHT22;1512;51.486;6.610;2023-12-07T02:39:08;0.40;1.00
3005;DHT22;1512;51.486;6.610;2023-12-07T02:43:19;0.40;1.00
3005;DHT22;1512;51.486;6.610;2023-12-07T02:47:28;0.40;1.00
3005;DHT22;1512;51.486;6.610;2023-12-07T02:51:37;0.40;1.00
3005;DHT22;1512;51.486;6.610;2023-12-07T02:55:45;0.40;1.00
3005;DHT22;1512;51.486;6.610;2023-12-07T02:59:54;0.40;99.90
3005;DHT22;1512;51.486;6.610;2023-12-07T03:04:03;0.40;99.90
3005;DHT22;1512;51.486;6.610;2023-12-07T03:08:12;0.50;1.00
3005;DHT22;1512;51.486;6.610;2023-12-07T03:12:20;0.50;1.00
3005;DHT22;1512;51.486;6.610;2023-12-07T03:16:37;0.50;99.90
3005;DHT22;1512;51.486;6.610;2023-12-07T03:20:46;0.50;1.00
3005;DHT22;1512;51.486;6.610;2023-12-07T03:29:16;0.60;1.00
3005;DHT22;1512;51.486;6.610;2023-12-07T03:33:24;0.70;1.00
3005;DHT22;1512;51.486;6.610;2023-12-07T03:37:33;0.80;1.00
3005;DHT22;1512;51.486;6.610;2023-12-07T03:42:01;0.80;1.00
3005;DHT22;1512;51.486;6.610;2023-12-07T03:46:10;0.90;1.00
3005;DHT22;1512;51.486;6.610;2023-12-07T03:50:19;0.90;1.00
3005;DHT22;1512;51.486;6.610;2023-12-07T03:54:27;1.00;1.00
3005;DHT22;1512;51.486;6.610;2023-12-07T03:58:36;1.00;1.00
3005;DHT22;1512;51.486;6.610;2023-12-07T04:02:45;1.00;1.00
3005;DHT22;1512;51.486;6.610;2023-12-07T04:07:13;1.00;1.00
3005;DHT22;1512;51.486;6.610;2023-12-07T04:11:21;1.10;1.00
3005;DHT22;1512;51.486;6.610;2023-12-07T04:15:30;1.10;9.00
3005;DHT22;1512;51.486;6.610;2023-12-07T04:19:39;1.10;47.30
3005;DHT22;1512;51.486;6.610;2023-12-07T04:23:47;1.20;78.60
3005;DHT22;1512;51.486;6.610;2023-12-07T04:27:56;1.20;99.90
3005;DHT22;1512;51.486;6.610;2023-12-07T04:32:06;1.20;99.90
3005;DHT22;1512;51.486;6.610;2023-12-07T04:36:14;1.30;99.90
3005;DHT22;1512;51.486;6.610;2023-12-07T04:40:24;1.30;99.90
3005;DHT22;1512;51.486;6.610;2023-12-07T04:44:33;1.30;99.90
3005;DHT22;1512;51.486;6.610;2023-12-07T04:48:42;1.40;99.90
3005;DHT22;1512;51.486;6.610;2023-12-07T04:52:50;1.40;99.90
3005;DHT22;1512;51.486;6.610;2023-12-07T04:57:00;1.40;99.90
3005;DHT22;1512;51.486;6.610;2023-12-07T05:01:09;1.40;99.90
3005;DHT22;1512;51.486;6.610;2023-12-07T05:05:17;1.50;99.90
3005;DHT22;1512;51.486;6.610;2023-12-07T05:09:26;1.50;99.90
3005;DHT22;1512;51.486;6.610;2023-12-07T05:13:36;1.50;99.90
3005;DHT22;1512;51.486;6.610;2023-12-07T05:17:45;1.50;99.90
3005;DHT22;1512;51.486;6.610;2023-12-07T05:21:54;1.50;99.90
3005;DHT22;1512;51.486;6.610;2023-12-07T05:26:02;1.50;99.90
3005;DHT22;1512;51.486;6.610;2023-12-07T05:30:11;1.50;99.90
3005;DHT22;1512;51.486;6.610;2023-12-07T05:34:21;1.50;99.90
3005;DHT22;1512;51.486;6.610;2023-12-07T05:38:30;1.50;99.90
3005;DHT22;1512;51.486;6.610;2023-12-07T05:42:39;1.40;99.90
3005;DHT22;1512;51.486;6.610;2023-12-07T05:46:48;1.40;99.90
3005;DHT22;1512;51.486;6.610;2023-12-07T05:51:16;1.40;99.90
3005;DHT22;1512;51.486;6.610;2023-12-07T05:55:25;1.40;99.90
3005;DHT22;1512;51.486;6.610;2023-12-07T05:59:38;1.30;99.90
3005;DHT22;1512;51.486;6.610;2023-12-07T06:03:47;1.30;99.90
3005;DHT22;1512;51.486;6.610;2023-12-07T06:07:55;1.30;99.90
3005;DHT22;1512;51.486;6.610;2023-12-07T06:12:04;1.30;99.90
3005;DHT22;1512;51.486;6.610;2023-12-07T06:16:13;1.40;99.90
3005;DHT22;1512;51.486;6.610;2023-12-07T06:20:22;1.40;99.90
3005;DHT22;1512;51.486;6.610;2023-12-07T06:24:30;1.40;99.90
3005;DHT22;1512;51.486;6.610;2023-12-07T06:28:40;1.40;99.90
3005;DHT22;1512;51.486;6.610;2023-12-07T06:32:50;1.40;99.90
3005;DHT22;1512;51.486;6.610;2023-12-07T06:36:58;1.40;99.90
3005;DHT22;1512;51.486;6.610;2023-12-07T06:41:07;1.40;99.90
3005;DHT22;1512;51.486;6.610;2023-12-07T06:45:16;1.40;99.90
3005;DHT22;1512;51.486;6.610;2023-12-07T06:49:24;1.40;99.90
3005;DHT22;1512;51.486;6.610;2023-12-07T06:53:34;1.40;99.90
3005;DHT22;1512;51.486;6.610;2023-12-07T06:57:43;1.50;99.90
3005;DHT22;1512;51.486;6.610;2023-12-07T07:01:52;1.40;99.90
3005;DHT22;1512;51.486;6.610;2023-12-07T07:06:01;1.50;99.90
3005;DHT22;1512;51.486;6.610;2023-12-07T07:10:09;1.50;99.90
3005;DHT22;1512;51.486;6.610;2023-12-07T07:14:20;1.50;99.90
3005;DHT22;1512;51.486;6.610;2023-12-07T07:18:29;1.50;99.90
3005;DHT22;1512;51.486;6.610;2023-12-07T07:22:37;1.50;99.90
3005;DHT22;1512;51.486;6.610;2023-12-07T07:26:47;1.50;99.90
3005;DHT22;1512;51.486;6.610;2023-12-07T07:30:55;1.50;99.90
3005;DHT22;1512;51.486;6.610;2023-12-07T07:35:04;1.50;99.90
3005;DHT22;1512;51.486;6.610;2023-12-07T07:39:13;1.50;99.90
3005;DHT22;1512;51.486;6.610;2023-12-07T07:43:21;1.50;99.90
3005;DHT22;1512;51.486;6.610;2023-12-07T07:47:30;1.50;99.90
3005;DHT22;1512;51.486;6.610;2023-12-07T07:51:39;1.50;99.90
3005;DHT22;1512;51.486;6.610;2023-12-07T07:55:47;1.60;99.90
3005;DHT22;1512;51.486;6.610;2023-12-07T07:59:57;1.50;99.90
3005;DHT22;1512;51.486;6.610;2023-12-07T08:04:06;1.60;99.90
3005;DHT22;1512;51.486;6.610;2023-12-07T08:08:21;1.60;99.90
3005;DHT22;1512;51.486;6.610;2023-12-07T08:12:30;1.60;99.90
3005;DHT22;1512;51.486;6.610;2023-12-07T08:25:21;1.60;99.90
3005;DHT22;1512;51.486;6.610;2023-12-07T08:29:30;1.60;99.90
3005;DHT22;1512;51.486;6.610;2023-12-07T08:33:38;1.60;99.90
3005;DHT22;1512;51.486;6.610;2023-12-07T08:37:47;1.60;99.90
3005;DHT22;1512;51.486;6.610;2023-12-07T08:41:56;1.70;99.90
3005;DHT22;1512;51.486;6.610;2023-12-07T08:46:05;1.70;99.90
3005;DHT22;1512;51.486;6.610;2023-12-07T08:50:15;1.80;99.90
3005;DHT22;1512;51.486;6.610;2023-12-07T08:54:23;1.70;99.90
3005;DHT22;1512;51.486;6.610;2023-12-07T08:58:32;1.80;99.90
3005;DHT22;1512;51.486;6.610;2023-12-07T09:02:41;1.80;99.90
3005;DHT22;1512;51.486;6.610;2023-12-07T09:06:51;1.80;99.90
3005;DHT22;1512;51.486;6.610;2023-12-07T09:11:00;1.90;99.90
3005;DHT22;1512;51.486;6.610;2023-12-07T09:15:09;2.00;99.90
3005;DHT22;1512;51.486;6.610;2023-12-07T09:19:18;1.90;99.90
3005;DHT22;1512;51.486;6.610;2023-12-07T09:23:27;1.90;99.90
3005;DHT22;1512;51.486;6.610;2023-12-07T09:27:37;1.90;99.90
3005;DHT22;1512;51.486;6.610;2023-12-07T09:31:46;2.00;99.90
3005;DHT22;1512;51.486;6.610;2023-12-07T09:35:54;2.10;99.90
3005;DHT22;1512;51.486;6.610;2023-12-07T09:40:03;2.20;99.90
3005;DHT22;1512;51.486;6.610;2023-12-07T09:44:13;2.20;99.90
3005;DHT22;1512;51.486;6.610;2023-12-07T09:48:22;2.20;99.90
3005;DHT22;1512;51.486;6.610;2023-12-07T09:52:31;2.20;99.90
3005;DHT22;1512;51.486;6.610;2023-12-07T09:56:40;2.20;99.90
3005;DHT22;1512;51.486;6.610;2023-12-07T10:00:49;2.20;99.90
3005;DHT22;1512;51.486;6.610;2023-12-07T10:05:12;2.20;99.90
3005;DHT22;1512;51.486;6.610;2023-12-07T10:09:25;2.20;99.90
3005;DHT22;1512;51.486;6.610;2023-12-07T10:13:37;2.30;99.90
3005;DHT22;1512;51.486;6.610;2023-12-07T10:17:57;2.40;99.90
3005;DHT22;1512;51.486;6.610;2023-12-07T10:22:15;2.40;99.90
3005;DHT22;1512;51.486;6.610;2023-12-07T10:26:24;2.50;99.90
3005;DHT22;1512;51.486;6.610;2023-12-07T10:30:33;2.60;99.90
3005;DHT22;1512;51.486;6.610;2023-12-07T10:34:42;2.70;99.90
3005;DHT22;1512;51.486;6.610;2023-12-07T10:38:51;2.80;99.90
3005;DHT22;1512;51.486;6.610;2023-12-07T10:43:02;2.90;99.90
3005;DHT22;1512;51.486;6.610;2023-12-07T10:47:12;2.90;99.90
3005;DHT22;1512;51.486;6.610;2023-12-07T10:51:37;2.90;99.90
3005;DHT22;1512;51.486;6.610;2023-12-07T10:55:56;2.80;99.90
3005;DHT22;1512;51.486;6.610;2023-12-07T11:00:07;2.80;99.90
3005;DHT22;1512;51.486;6.610;2023-12-07T11:04:17;2.80;99.90
3005;DHT22;1512;51.486;6.610;2023-12-07T11:08:38;2.90;99.90
3005;DHT22;1512;51.486;6.610;2023-12-07T11:12:53;2.90;99.90
3005;DHT22;1512;51.486;6.610;2023-12-07T11:17:01;2.90;99.90
3005;DHT22;1512;51.486;6.610;2023-12-07T11:21:11;2.90;99.90
3005;DHT22;1512;51.486;6.610;2023-12-07T11:25:20;2.90;99.90
3005;DHT22;1512;51.486;6.610;2023-12-07T11:29:30;3.00;99.90
3005;DHT22;1512;51.486;6.610;2023-12-07T11:33:39;3.00;99.90
3005;DHT22;1512;51.486;6.610;2023-12-07T11:38:07;3.00;99.90
3005;DHT22;1512;51.486;6.610;2023-12-07T11:42:17;3.10;99.90
3005;DHT22;1512;51.486;6.610;2023-12-07T11:46:46;3.10;99.90
3005;DHT22;1512;51.486;6.610;2023-12-07T11:55:12;3.20;99.90
3005;DHT22;1512;51.486;6.610;2023-12-07T11:59:21;3.20;99.90
3005;DHT22;1512;51.486;6.610;2023-12-07T12:03:33;3.20;99.90
3005;DHT22;1512;51.486;6.610;2023-12-07T12:07:43;3.20;99.90
3005;DHT22;1512;51.486;6.610;2023-12-07T12:12:11;3.30;99.90
3005;DHT22;1512;51.486;6.610;2023-12-07T12:16:41;3.30;99.90
3005;DHT22;1512;51.486;6.610;2023-12-07T12:20:50;3.30;99.90
3005;DHT22;1512;51.486;6.610;2023-12-07T12:24:59;3.30;99.90
3005;DHT22;1512;51.486;6.610;2023-12-07T12:29:08;3.20;99.90
3005;DHT22;1512;51.486;6.610;2023-12-07T12:33:20;3.20;99.90
3005;DHT22;1512;51.486;6.610;2023-12-07T12:37:31;3.20;99.90
3005;DHT22;1512;51.486;6.610;2023-12-07T12:41:40;3.20;99.90
3005;DHT22;1512;51.486;6.610;2023-12-07T12:45:49;3.20;99.90
3005;DHT22;1512;51.486;6.610;2023-12-07T12:49:59;3.30;99.90
3005;DHT22;1512;51.486;6.610;2023-12-07T12:54:08;3.40;99.90
3005;DHT22;1512;51.486;6.610;2023-12-07T12:58:19;3.40;99.90
3005;DHT22;1512;51.486;6.610;2023-12-07T13:02:30;3.40;99.90
3005;DHT22;1512;51.486;6.610;2023-12-07T13:06:45;3.40;99.90
3005;DHT22;1512;51.486;6.610;2023-12-07T13:10:51;3.40;99.90
3005;DHT22;1512;51.486;6.610;2023-12-07T13:15:00;3.40;99.90
3005;DHT22;1512;51.486;6.610;2023-12-07T13:19:08;3.40;99.90
3005;DHT22;1512;51.486;6.610;2023-12-07T13:23:17;3.40;99.90
3005;DHT22;1512;51.486;6.610;2023-12-07T13:27:26;3.40;99.90
3005;DHT22;1512;51.486;6.610;2023-12-07T13:31:36;3.40;99.90
3005;DHT22;1512;51.486;6.610;2023-12-07T13:35:44;3.40;99.90
3005;DHT22;1512;51.486;6.610;2023-12-07T13:39:53;3.40;99.90
3005;DHT22;1512;51.486;6.610;2023-12-07T13:44:04;3.40;99.90
3005;DHT22;1512;51.486;6.610;2023-12-07T13:48:13;3.50;99.90
3005;DHT22;1512;51.486;6.610;2023-12-07T13:52:23;3.50;99.90
3005;DHT22;1512;51.486;6.610;2023-12-07T13:56:32;3.50;99.90
3005;DHT22;1512;51.486;6.610;2023-12-07T14:00:41;3.50;99.90
3005;DHT22;1512;51.486;6.610;2023-12-07T14:05:10;3.50;99.90
3005;DHT22;1512;51.486;6.610;2023-12-07T14:09:20;3.50;99.90
3005;DHT22;1512;51.486;6.610;2023-12-07T14:13:30;3.50;99.90
3005;DHT22;1512;51.486;6.610;2023-12-07T14:17:39;3.50;99.90
3005;DHT22;1512;51.486;6.610;2023-12-07T14:21:50;3.40;99.90
3005;DHT22;1512;51.486;6.610;2023-12-07T14:26:00;3.40;99.90
3005;DHT22;1512;51.486;6.610;2023-12-07T14:30:11;3.40;99.90
3005;DHT22;1512;51.486;6.610;2023-12-07T14:34:20;3.30;99.90
3005;DHT22;1512;51.486;6.610;2023-12-07T14:38:30;3.30;99.90
3005;DHT22;1512;51.486;6.610;2023-12-07T14:42:59;3.20;99.90
3005;DHT22;1512;51.486;6.610;2023-12-07T14:47:07;3.20;99.90
3005;DHT22;1512;51.486;6.610;2023-12-07T14:51:19;3.20;99.90
3005;DHT22;1512;51.486;6.610;2023-12-07T14:55:28;3.20;99.90
3005;DHT22;1512;51.486;6.610;2023-12-07T14:59:37;3.20;99.90
3005;DHT22;1512;51.486;6.610;2023-12-07T15:03:45;3.10;99.90
3005;DHT22;1512;51.486;6.610;2023-12-07T15:08:13;3.00;99.90
3005;DHT22;1512;51.486;6.610;2023-12-07T15:12:22;3.00;99.90
3005;DHT22;1512;51.486;6.610;2023-12-07T15:16:53;3.00;99.90
3005;DHT22;1512;51.486;6.610;2023-12-07T15:21:06;2.90;99.90
3005;DHT22;1512;51.486;6.610;2023-12-07T15:25:14;2.90;99.90
3005;DHT22;1512;51.486;6.610;2023-12-07T15:29:23;2.80;99.90
3005;DHT22;1512;51.486;6.610;2023-12-07T15:33:32;2.70;99.90
3005;DHT22;1512;51.486;6.610;2023-12-07T15:37:41;2.70;99.90
3005;DHT22;1512;51.486;6.610;2023-12-07T15:41:50;2.60;99.90
3005;DHT22;1512;51.486;6.610;2023-12-07T15:50:19;2.60;99.90
3005;DHT22;1512;51.486;6.610;2023-12-07T15:54:28;2.50;99.90
3005;DHT22;1512;51.486;6.610;2023-12-07T15:58:39;2.50;99.90
3005;DHT22;1512;51.486;6.610;2023-12-07T16:02:47;2.50;99.90
3005;DHT22;1512;51.486;6.610;2023-12-07T16:06:56;2.50;99.90
3005;DHT22;1512;51.486;6.610;2023-12-07T16:11:05;2.50;99.90
3005;DHT22;1512;51.486;6.610;2023-12-07T16:15:13;2.40;99.90
3005;DHT22;1512;51.486;6.610;2023-12-07T16:19:23;2.40;99.90
3005;DHT22;1512;51.486;6.610;2023-12-07T16:23:32;2.40;99.90
3005;DHT22;1512;51.486;6.610;2023-12-07T16:27:41;2.40;99.90
3005;DHT22;1512;51.486;6.610;2023-12-07T16:31:50;2.40;99.90
3005;DHT22;1512;51.486;6.610;2023-12-07T16:35:58;2.30;99.90
3005;DHT22;1512;51.486;6.610;2023-12-07T16:40:09;2.30;99.90
3005;DHT22;1512;51.486;6.610;2023-12-07T16:44:18;2.30;99.90
3005;DHT22;1512;51.486;6.610;2023-12-07T16:48:27;2.30;99.90
3005;DHT22;1512;51.486;6.610;2023-12-07T16:52:55;2.30;99.90
3005;DHT22;1512;51.486;6.610;2023-12-07T16:57:05;2.30;99.90
3005;DHT22;1512;51.486;6.610;2023-12-07T17:01:14;2.30;99.90
3005;DHT22;1512;51.486;6.610;2023-12-07T17:05:23;2.30;99.90
3005;DHT22;1512;51.486;6.610;2023-12-07T17:09:32;2.30;99.90
3005;DHT22;1512;51.486;6.610;2023-12-07T17:13:41;2.30;99.90
3005;DHT22;1512;51.486;6.610;2023-12-07T17:17:50;2.30;99.90
3005;DHT22;1512;51.486;6.610;2023-12-07T17:21:59;2.30;99.90
3005;DHT22;1512;51.486;6.610;2023-12-07T17:26:08;2.40;99.90
3005;DHT22;1512;51.486;6.610;2023-12-07T17:30:17;2.40;99.90
3005;DHT22;1512;51.486;6.610;2023-12-07T17:34:25;2.40;99.90
3005;DHT22;1512;51.486;6.610;2023-12-07T17:38:34;2.40;99.90
3005;DHT22;1512;51.486;6.610;2023-12-07T17:42:43;2.40;99.90
3005;DHT22;1512;51.486;6.610;2023-12-07T17:46:52;2.50;99.90
3005;DHT22;1512;51.486;6.610;2023-12-07T17:51:01;2.50;99.90
3005;DHT22;1512;51.486;6.610;2023-12-07T17:55:10;2.50;99.90
3005;DHT22;1512;51.486;6.610;2023-12-07T17:59:18;2.50;99.90
3005;DHT22;1512;51.486;6.610;2023-12-07T18:03:48;2.50;99.90
3005;DHT22;1512;51.486;6.610;2023-12-07T18:07:57;2.40;99.90
3005;DHT22;1512;51.486;6.610;2023-12-07T18:12:07;2.40;99.90
3005;DHT22;1512;51.486;6.610;2023-12-07T18:16:18;2.40;99.90
3005;DHT22;1512;51.486;6.610;2023-12-07T18:20:27;2.50;99.90
3005;DHT22;1512;51.486;6.610;2023-12-07T18:24:36;2.50;99.90
3005;DHT22;1512;51.486;6.610;2023-12-07T18:28:44;2.50;99.90
3005;DHT22;1512;51.486;6.610;2023-12-07T18:32:53;2.50;99.90
3005;DHT22;1512;51.486;6.610;2023-12-07T18:37:03;2.60;99.90
3005;DHT22;1512;51.486;6.610;2023-12-07T18:41:12;2.60;99.90
3005;DHT22;1512;51.486;6.610;2023-12-07T18:45:20;2.60;99.90
3005;DHT22;1512;51.486;6.610;2023-12-07T18:49:48;2.50;99.90
3005;DHT22;1512;51.486;6.610;2023-12-07T18:53:57;2.50;99.90
3005;DHT22;1512;51.486;6.610;2023-12-07T18:58:06;2.50;99.90
3005;DHT22;1512;51.486;6.610;2023-12-07T19:02:34;2.50;99.90
3005;DHT22;1512;51.486;6.610;2023-12-07T19:06:42;2.50;99.90
3005;DHT22;1512;51.486;6.610;2023-12-07T19:10:51;2.50;99.90
3005;DHT22;1512;51.486;6.610;2023-12-07T19:15:00;2.50;99.90
3005;DHT22;1512;51.486;6.610;2023-12-07T19:19:08;2.50;99.90
3005;DHT22;1512;51.486;6.610;2023-12-07T19:23:17;2.50;99.90
3005;DHT22;1512;51.486;6.610;2023-12-07T19:27:26;2.50;99.90
3005;DHT22;1512;51.486;6.610;2023-12-07T19:31:40;2.50;99.90
3005;DHT22;1512;51.486;6.610;2023-12-07T19:35:48;2.50;99.90
3005;DHT22;1512;51.486;6.610;2023-12-07T19:44:18;2.50;99.90
3005;DHT22;1512;51.486;6.610;2023-12-07T19:48:27;2.60;99.90
3005;DHT22;1512;51.486;6.610;2023-12-07T19:52:36;2.60;87.20
3005;DHT22;1512;51.486;6.610;2023-12-07T19:57:04;2.60;99.90
3005;DHT22;1512;51.486;6.610;2023-12-07T20:01:13;2.50;99.90
3005;DHT22;1512;51.486;6.610;2023-12-07T20:05:41;2.50;99.90
3005;DHT22;1512;51.486;6.610;2023-12-07T20:09:50;2.50;99.90
3005;DHT22;1512;51.486;6.610;2023-12-07T20:13:58;2.50;96.50
3005;DHT22;1512;51.486;6.610;2023-12-07T20:18:07;2.50;80.40
3005;DHT22;1512;51.486;6.610;2023-12-07T20:22:16;2.50;64.40
3005;DHT22;1512;51.486;6.610;2023-12-07T20:26:24;2.50;99.90
3005;DHT22;1512;51.486;6.610;2023-12-07T20:30:33;2.50;76.30
3005;DHT22;1512;51.486;6.610;2023-12-07T20:34:41;2.50;43.00
3005;DHT22;1512;51.486;6.610;2023-12-07T20:38:50;2.50;89.00
3005;DHT22;1512;51.486;6.610;2023-12-07T20:43:18;2.50;99.90
3005;DHT22;1512;51.486;6.610;2023-12-07T20:47:27;2.50;99.90
3005;DHT22;1512;51.486;6.610;2023-12-07T20:51:36;2.50;99.90
3005;DHT22;1512;51.486;6.610;2023-12-07T20:55:45;2.50;99.90
3005;DHT22;1512;51.486;6.610;2023-12-07T20:59:53;2.50;99.90
3005;DHT22;1512;51.486;6.610;2023-12-07T21:04:02;2.50;99.90
3005;DHT22;1512;51.486;6.610;2023-12-07T21:08:11;2.50;99.90
3005;DHT22;1512;51.486;6.610;2023-12-07T21:12:20;2.50;99.90
3005;DHT22;1512;51.486;6.610;2023-12-07T21:16:29;2.50;99.90
3005;DHT22;1512;51.486;6.610;2023-12-07T21:20:38;2.50;99.90
3005;DHT22;1512;51.486;6.610;2023-12-07T21:24:47;2.50;99.90
3005;DHT22;1512;51.486;6.610;2023-12-07T21:28:56;2.50;99.90
3005;DHT22;1512;51.486;6.610;2023-12-07T21:33:05;2.50;99.90
3005;DHT22;1512;51.486;6.610;2023-12-07T21:37:13;2.60;99.90
3005;DHT22;1512;51.486;6.610;2023-12-07T21:41:22;2.60;98.30
3005;DHT22;1512;51.486;6.610;2023-12-07T21:45:31;2.60;99.90
3005;DHT22;1512;51.486;6.610;2023-12-07T21:49:41;2.60;99.90
3005;DHT22;1512;51.486;6.610;2023-12-07T21:53:50;2.60;97.80
3005;DHT22;1512;51.486;6.610;2023-12-07T21:57:58;2.70;28.60
3005;DHT22;1512;51.486;6.610;2023-12-07T22:02:07;2.70;46.20
3005;DHT22;1512;51.486;6.610;2023-12-07T22:06:26;2.70;21.80
3005;DHT22;1512;51.486;6.610;2023-12-07T22:10:35;2.70;3.50
3005;DHT22;1512;51.486;6.610;2023-12-07T22:14:44;2.70;1.00
3005;DHT22;1512;51.486;6.610;2023-12-07T22:18:52;2.80;1.00
3005;DHT22;1512;51.486;6.610;2023-12-07T22:23:01;2.80;1.00
3005;DHT22;1512;51.486;6.610;2023-12-07T22:27:10;2.80;1.00
3005;DHT22;1512;51.486;6.610;2023-12-07T22:31:19;2.90;1.00
3005;DHT22;1512;51.486;6.610;2023-12-07T22:35:27;2.90;1.00
3005;DHT22;1512;51.486;6.610;2023-12-07T22:39:36;2.90;1.00
3005;DHT22;1512;51.486;6.610;2023-12-07T22:43:45;3.00;1.00
3005;DHT22;1512;51.486;6.610;2023-12-07T22:47:53;3.00;1.00
3005;DHT22;1512;51.486;6.610;2023-12-07T22:52:02;3.00;1.00
3005;DHT22;1512;51.486;6.610;2023-12-07T22:56:11;3.00;1.00
3005;DHT22;1512;51.486;6.610;2023-12-07T23:00:20;3.00;1.00
3005;DHT22;1512;51.486;6.610;2023-12-07T23:04:28;3.10;1.00
3005;DHT22;1512;51.486;6.610;2023-12-07T23:08:37;3.10;1.00
3005;DHT22;1512;51.486;6.610;2023-12-07T23:12:46;3.10;1.00
3005;DHT22;1512;51.486;6.610;2023-12-07T23:16:54;3.10;1.00
3005;DHT22;1512;51.486;6.610;2023-12-07T23:21:03;3.20;1.00
3005;DHT22;1512;51.486;6.610;2023-12-07T23:25:12;3.20;1.00
3005;DHT22;1512;51.486;6.610;2023-12-07T23:29:21;3.20;1.00
3005;DHT22;1512;51.486;6.610;2023-12-07T23:33:30;3.30;1.00
3005;DHT22;1512;51.486;6.610;2023-12-07T23:37:38;3.30;1.00
3005;DHT22;1512;51.486;6.610;2023-12-07T23:41:47;3.40;1.00
3005;DHT22;1512;51.486;6.610;2023-12-07T23:45:56;3.40;1.00
3005;DHT22;1512;51.486;6.610;2023-12-07T23:50:24;3.40;1.00
3005;DHT22;1512;51.486;6.610;2023-12-07T23:54:32;3.40;1.00
3005;DHT22;1512;51.486;6.610;2023-12-07T23:58:41;3.40;1.00
